Wetterstation Vordersexau
Wetterdaten: Woche 25.03.13 - 31.03.13 (KW13)
Datum Zeit Temp. A. Feuchte A. Luftdruck Regen Wind Richtung Taupunkt Windchill Windben
25.03.2013 00:00 1,3 C 85 % 1004,8 hPa 0,5 l/m 0,0 km/h S -0,9 C 1,3 C 0,0 km/h
25.03.2013 01:00 1,0 C 85 % 1004,7 hPa 0,0 l/m 0,0 km/h S-SO -1,2 C 1,0 C 0,0 km/h
25.03.2013 02:00 0,8 C 85 % 1004,5 hPa 0,0 l/m 0,0 km/h O-NO -1,4 C 0,8 C 0,0 km/h
25.03.2013 03:00 0,4 C 85 % 1004,3 hPa 0,0 l/m 0,0 km/h NO -1,8 C 0,4 C 0,0 km/h
25.03.2013 04:00 0,2 C 85 % 1003,9 hPa 0,0 l/m 0,0 km/h NO -2,0 C 0,2 C 0,0 km/h
25.03.2013 05:00 0,2 C 85 % 1004,2 hPa 0,0 l/m 0,0 km/h NO -2,0 C 0,2 C 0,0 km/h
25.03.2013 06:00 0,3 C 85 % 1004,3 hPa 0,0 l/m 0,0 km/h O-NO -1,9 C 0,3 C 0,0 km/h
25.03.2013 07:00 0,4 C 84 % 1004,5 hPa 0,0 l/m 0,0 km/h O-NO -2,0 C 0,4 C 0,0 km/h
25.03.2013 08:00 1,0 C 85 % 1005,0 hPa 0,0 l/m 0,0 km/h O -1,2 C 1,0 C 0,0 km/h
25.03.2013 09:00 2,4 C 85 % 1005,1 hPa 1,0 l/m 0,0 km/h SO 0,1 C 2,4 C 0,0 km/h
25.03.2013 10:00 5,4 C 83 % 1004,9 hPa 1,0 l/m 0,0 km/h N-NO 2,7 C 5,4 C 0,0 km/h
25.03.2013 11:00 5,1 C 74 % 1004,6 hPa 0,0 l/m 0,0 km/h O-SO 0,9 C 5,1 C 0,0 km/h
25.03.2013 12:00 5,1 C 69 % 1004,6 hPa 0,0 l/m 0,0 km/h NO -0,1 C 5,1 C 0,0 km/h
25.03.2013 13:00 6,1 C 67 % 1004,3 hPa 0,0 l/m 9,1 km/h O-NO 0,4 C 3,9 C 5,0 km/h
25.03.2013 14:00 5,5 C 67 % 1004,4 hPa 0,0 l/m 0,0 km/h SO -0,1 C 5,5 C 0,0 km/h
25.03.2013 15:00 4,4 C 68 % 1004,5 hPa 0,0 l/m 0,0 km/h O -1,0 C 4,4 C 0,0 km/h
25.03.2013 16:00 3,3 C 70 % 1004,5 hPa 0,0 l/m 0,0 km/h O-SO -1,6 C 3,3 C 0,0 km/h
25.03.2013 17:00 2,4 C 72 % 1004,5 hPa 0,0 l/m 0,0 km/h SO -2,1 C 2,4 C 0,0 km/h
25.03.2013 18:00 1,9 C 74 % 1004,7 hPa 0,0 l/m 0,0 km/h SO -2,2 C 1,9 C 0,0 km/h
25.03.2013 19:00 1,6 C 75 % 1004,9 hPa 0,0 l/m 1,9 km/h O-SO -2,3 C 1,6 C 1,1 km/h
25.03.2013 20:00 1,3 C 75 % 1005,1 hPa 0,0 l/m 0,0 km/h S-SO -2,6 C 1,3 C 0,0 km/h
25.03.2013 21:00 1,2 C 75 % 1005,2 hPa 0,0 l/m 0,0 km/h S-SO -2,7 C 1,2 C 0,0 km/h
25.03.2013 22:00 1,0 C 76 % 1004,9 hPa 0,0 l/m 0,0 km/h O-SO -2,7 C 1,0 C 0,0 km/h
25.03.2013 23:00 0,9 C 76 % 1004,5 hPa 0,0 l/m 0,0 km/h O-SO -2,8 C 0,9 C 0,0 km/h
26.03.2013 00:00 0,9 C 76 % 1004,3 hPa 0,0 l/m 0,0 km/h O-SO -2,8 C 0,9 C 0,0 km/h
26.03.2013 01:00 0,8 C 75 % 1003,9 hPa 0,0 l/m 0,0 km/h O-SO -3,1 C 0,8 C 0,0 km/h
26.03.2013 02:00 0,7 C 75 % 1003,6 hPa 0,0 l/m 0,0 km/h O-SO -3,2 C 0,7 C 0,0 km/h
26.03.2013 03:00 0,5 C 75 % 1003,5 hPa 0,0 l/m 0,0 km/h O-SO -3,4 C 0,5 C 0,0 km/h
26.03.2013 04:00 0,3 C 75 % 1003,6 hPa 0,0 l/m 0,0 km/h O-SO -3,6 C 0,3 C 0,0 km/h
26.03.2013 05:00 0,2 C 75 % 1003,5 hPa 0,0 l/m 0,0 km/h O-SO -3,7 C 0,2 C 0,0 km/h
26.03.2013 06:00 0,1 C 75 % 1003,4 hPa 0,0 l/m 0,0 km/h O-SO -3,8 C 0,1 C 0,0 km/h
26.03.2013 07:00 0,3 C 74 % 1003,8 hPa 0,0 l/m 0,0 km/h O-SO -3,8 C 0,3 C 0,0 km/h
26.03.2013 08:00 1,2 C 73 % 1004,0 hPa 0,0 l/m 0,0 km/h O-NO -3,1 C 1,2 C 0,0 km/h
26.03.2013 09:00 2,4 C 70 % 1004,2 hPa 0,0 l/m 0,0 km/h S -2,5 C 2,4 C 0,0 km/h
26.03.2013 10:00 3,9 C 68 % 1004,3 hPa 0,0 l/m 0,0 km/h SO -1,5 C 3,9 C 0,0 km/h
26.03.2013 11:00 2,9 C 71 % 1004,8 hPa 0,0 l/m 0,0 km/h NO -1,8 C 2,9 C 0,0 km/h
26.03.2013 12:00 3,6 C 73 % 1004,8 hPa 0,0 l/m 0,0 km/h O -0,8 C 3,6 C 0,0 km/h
26.03.2013 13:00 2,9 C 77 % 1004,8 hPa 0,5 l/m 0,0 km/h O-SO -0,7 C 2,9 C 0,0 km/h
26.03.2013 14:00 3,9 C 75 % 1005,0 hPa 0,0 l/m 0,0 km/h S -0,1 C 3,9 C 0,0 km/h
26.03.2013 15:00 3,8 C 74 % 1005,0 hPa 0,0 l/m 0,0 km/h SO -0,4 C 3,8 C 0,0 km/h
26.03.2013 16:00 3,4 C 73 % 1005,1 hPa 0,0 l/m 0,0 km/h S-SO -1,0 C 3,4 C 0,0 km/h
26.03.2013 17:00 1,9 C 76 % 1005,3 hPa 0,0 l/m 0,0 km/h S-SO -1,9 C 1,9 C 0,0 km/h
26.03.2013 18:00 0,9 C 79 % 1005,8 hPa 0,0 l/m 0,0 km/h S-SO -2,3 C 0,9 C 0,0 km/h
26.03.2013 19:00 0,4 C 81 % 1006,0 hPa 0,0 l/m 0,0 km/h SO -2,5 C 0,4 C 0,0 km/h
26.03.2013 20:00 0,2 C 80 % 1006,6 hPa 0,0 l/m 0,0 km/h SO -2,8 C 0,2 C 0,0 km/h
26.03.2013 21:00 0,2 C 80 % 1006,6 hPa 0,0 l/m 0,0 km/h NO -2,8 C 0,2 C 0,0 km/h
26.03.2013 22:00 0,3 C 80 % 1006,6 hPa 0,0 l/m 0,0 km/h N -2,7 C 0,3 C 0,0 km/h
26.03.2013 23:00 0,2 C 78 % 1006,2 hPa 0,0 l/m 0,0 km/h SO -3,2 C 0,2 C 0,0 km/h
27.03.2013 00:00 -0,1 C 78 % 1006,1 hPa 0,0 l/m 0,0 km/h SO -3,5 C -0,1 C 0,0 km/h
27.03.2013 01:00 -0,4 C 78 % 1005,9 hPa 0,0 l/m 0,0 km/h SO -3,8 C -0,4 C 0,0 km/h
27.03.2013 02:00 -0,5 C 77 % 1005,6 hPa 0,0 l/m 0,0 km/h S-SO -4,0 C -0,5 C 0,0 km/h
27.03.2013 03:00 -0,4 C 75 % 1005,1 hPa 0,0 l/m 0,0 km/h S-SO -4,3 C -0,4 C 0,0 km/h
27.03.2013 04:00 -0,6 C 75 % 1004,6 hPa 0,0 l/m 0,0 km/h SO -4,5 C -0,6 C 0,0 km/h
27.03.2013 05:00 -0,8 C 75 % 1004,4 hPa 0,0 l/m 0,0 km/h SO -4,7 C -0,8 C 0,0 km/h
27.03.2013 06:00 -0,8 C 75 % 1004,7 hPa 0,0 l/m 0,0 km/h S-SW -4,7 C -0,8 C 0,0 km/h
27.03.2013 07:00 -0,4 C 75 % 1004,3 hPa 0,0 l/m 0,0 km/h S-SO -4,3 C -0,4 C 0,0 km/h
27.03.2013 08:00 0,3 C 73 % 1004,5 hPa 0,0 l/m 0,0 km/h O-SO -4,0 C 0,3 C 0,0 km/h
27.03.2013 09:00 1,4 C 71 % 1004,5 hPa 0,0 l/m 0,0 km/h N-NO -3,3 C 1,4 C 0,0 km/h
27.03.2013 10:00 1,9 C 69 % 1005,2 hPa 0,0 l/m 1,3 km/h W-SW -3,2 C 1,9 C 0,7 km/h
27.03.2013 11:00 3,6 C 66 % 1005,1 hPa 0,0 l/m 0,0 km/h N -2,1 C 3,6 C 0,0 km/h
27.03.2013 12:00 3,9 C 64 % 1005,0 hPa 0,0 l/m 0,0 km/h N-NW -2,3 C 3,9 C 0,0 km/h
27.03.2013 13:00 4,1 C 64 % 1005,0 hPa 0,0 l/m 5,8 km/h N-NO -2,1 C 4,1 C 3,2 km/h
27.03.2013 14:00 3,9 C 64 % 1004,7 hPa 0,0 l/m 3,9 km/h N -2,3 C 3,9 C 2,2 km/h
27.03.2013 15:00 4,4 C 64 % 1004,6 hPa 0,0 l/m 0,0 km/h N -1,8 C 4,4 C 0,0 km/h
27.03.2013 16:00 5,4 C 61 % 1004,7 hPa 0,0 l/m 1,3 km/h N-NO -1,5 C 5,4 C 0,7 km/h
27.03.2013 17:00 4,8 C 62 % 1004,4 hPa 0,0 l/m 0,0 km/h N -1,9 C 4,8 C 0,0 km/h
27.03.2013 18:00 3,3 C 66 % 1004,5 hPa 0,0 l/m 0,0 km/h N -2,4 C 3,3 C 0,0 km/h
27.03.2013 19:00 2,2 C 72 % 1005,1 hPa 0,0 l/m 0,0 km/h W-NW -2,3 C 2,2 C 0,0 km/h
27.03.2013 20:00 1,8 C 75 % 1005,6 hPa 0,0 l/m 0,0 km/h W -2,1 C 1,8 C 0,0 km/h
27.03.2013 21:00 0,6 C 78 % 1005,6 hPa 0,0 l/m 0,0 km/h W -2,8 C 0,6 C 0,0 km/h
27.03.2013 22:00 -0,1 C 81 % 1005,6 hPa 0,0 l/m 0,0 km/h SW -3,0 C -0,1 C 0,0 km/h
27.03.2013 23:00 -0,2 C 83 % 1005,5 hPa 0,0 l/m 0,0 km/h S -2,7 C -0,2 C 0,0 km/h
28.03.2013 00:00 -1,3 C 83 % 1005,3 hPa 0,0 l/m 0,0 km/h O-SO -3,8 C -1,3 C 0,0 km/h
28.03.2013 01:00 -2,7 C 84 % 1004,8 hPa 0,0 l/m 0,0 km/h O-SO -5,0 C -2,7 C 0,0 km/h
28.03.2013 02:00 -2,5 C 85 % 1005,0 hPa 0,0 l/m 0,0 km/h O-SO -4,7 C -2,5 C 0,0 km/h
28.03.2013 03:00 -2,5 C 85 % 1004,9 hPa 0,0 l/m 0,0 km/h S-SO -4,7 C -2,5 C 0,0 km/h
28.03.2013 04:00 -2,7 C 86 % 1004,8 hPa 0,0 l/m 0,0 km/h O-SO -4,7 C -2,7 C 0,0 km/h
28.03.2013 05:00 -3,1 C 86 % 1004,8 hPa 0,0 l/m 0,0 km/h O-SO -5,1 C -3,1 C 0,0 km/h
28.03.2013 06:00 -3,4 C 86 % 1004,5 hPa 0,0 l/m 0,0 km/h SO -5,4 C -3,4 C 0,0 km/h
28.03.2013 07:00 -1,9 C 84 % 1004,8 hPa 0,0 l/m 0,0 km/h N -4,2 C -1,9 C 0,0 km/h
28.03.2013 08:00 2,1 C 85 % 1004,7 hPa 0,0 l/m 2,6 km/h NO -0,2 C 2,1 C 1,4 km/h
28.03.2013 09:00 3,4 C 78 % 1004,2 hPa 0,0 l/m 0,0 km/h N -0,1 C 3,4 C 0,0 km/h
28.03.2013 10:00 3,5 C 76 % 1004,4 hPa 0,0 l/m 5,8 km/h NO -0,3 C 3,5 C 3,2 km/h
28.03.2013 11:00 2,8 C 77 % 1004,5 hPa 0,0 l/m 0,0 km/h NO -0,8 C 2,8 C 0,0 km/h
28.03.2013 12:00 3,6 C 75 % 1004,1 hPa 0,0 l/m 0,0 km/h N -0,4 C 3,6 C 0,0 km/h
28.03.2013 13:00 2,9 C 76 % 1004,4 hPa 0,0 l/m 0,0 km/h W-NW -0,9 C 2,9 C 0,0 km/h
28.03.2013 14:00 3,0 C 79 % 1003,9 hPa 0,0 l/m 0,0 km/h N -0,3 C 3,0 C 0,0 km/h
28.03.2013 15:00 2,8 C 81 % 1004,1 hPa 0,5 l/m 0,0 km/h N -0,1 C 2,8 C 0,0 km/h
28.03.2013 16:00 1,4 C 84 % 1003,8 hPa 1,0 l/m 0,0 km/h NO -1,0 C 1,4 C 0,0 km/h
28.03.2013 17:00 1,1 C 85 % 1003,8 hPa 1,0 l/m 0,6 km/h S-SW -1,1 C 1,1 C 0,4 km/h
28.03.2013 18:00 0,4 C 85 % 1004,1 hPa 0,0 l/m 0,0 km/h S-SW -1,8 C 0,4 C 0,0 km/h
28.03.2013 19:00 0,5 C 85 % 1004,5 hPa 0,5 l/m 0,0 km/h S-SW -1,7 C 0,5 C 0,0 km/h
28.03.2013 20:00 0,8 C 85 % 1004,6 hPa 0,5 l/m 0,0 km/h S-SO -1,4 C 0,8 C 0,0 km/h
28.03.2013 21:00 1,1 C 84 % 1005,3 hPa 0,0 l/m 0,0 km/h O-SO -1,3 C 1,1 C 0,0 km/h
28.03.2013 22:00 1,3 C 84 % 1005,9 hPa 0,5 l/m 0,0 km/h NO -1,1 C 1,3 C 0,0 km/h
28.03.2013 23:00 1,6 C 83 % 1006,2 hPa 0,0 l/m 0,0 km/h W -1,0 C 1,6 C 0,0 km/h
29.03.2013 00:00 1,8 C 82 % 1006,5 hPa 0,5 l/m 0,0 km/h W -0,9 C 1,8 C 0,0 km/h
29.03.2013 01:00 1,7 C 81 % 1007,0 hPa 0,0 l/m 1,9 km/h N-NW -1,2 C 1,7 C 1,1 km/h
29.03.2013 02:00 1,5 C 81 % 1007,0 hPa 0,0 l/m 3,2 km/h N -1,4 C 1,5 C 1,8 km/h
29.03.2013 03:00 0,5 C 82 % 1007,3 hPa 0,0 l/m 0,0 km/h SO -2,2 C 0,5 C 0,0 km/h
29.03.2013 04:00 -1,5 C 83 % 1007,0 hPa 0,0 l/m 0,0 km/h SO -4,0 C -1,5 C 0,0 km/h
29.03.2013 05:00 -2,1 C 83 % 1007,3 hPa 0,0 l/m 0,0 km/h S-SO -4,6 C -2,1 C 0,0 km/h
29.03.2013 06:00 -2,4 C 83 % 1007,5 hPa 0,0 l/m 0,0 km/h S-SO -4,9 C -2,4 C 0,0 km/h
29.03.2013 07:00 -1,1 C 81 % 1007,1 hPa 0,0 l/m 0,0 km/h S-SO -3,9 C -1,1 C 0,0 km/h
29.03.2013 08:00 3,8 C 66 % 1006,9 hPa 0,0 l/m 0,0 km/h S-SO -2,0 C 3,8 C 0,0 km/h
29.03.2013 09:00 7,5 C 84 % 1006,6 hPa 0,0 l/m 0,0 km/h S 5,0 C 7,5 C 0,0 km/h
29.03.2013 10:00 9,9 C 59 % 1006,2 hPa 0,0 l/m 0,0 km/h W-NW 2,3 C 9,9 C 0,0 km/h
29.03.2013 11:00 11,6 C 53 % 1005,5 hPa 0,0 l/m 6,5 km/h N-NO 2,4 C 11,6 C 3,6 km/h
29.03.2013 12:00 11,6 C 48 % 1004,9 hPa 0,0 l/m 0,6 km/h O-NO 1,0 C 11,6 C 0,4 km/h
29.03.2013 13:00 11,2 C 49 % 1004,3 hPa 0,0 l/m 6,5 km/h O-NO 0,9 C 11,2 C 3,6 km/h
29.03.2013 14:00 10,5 C 48 % 1003,8 hPa 0,0 l/m 0,0 km/h N -0,0 C 10,5 C 0,0 km/h
29.03.2013 15:00 10,2 C 46 % 1003,4 hPa 0,0 l/m 16,2 km/h N -0,9 C 4,9 C 9,0 km/h
29.03.2013 16:00 9,8 C 49 % 1003,3 hPa 0,0 l/m 4,5 km/h N -0,4 C 9,8 C 2,5 km/h
29.03.2013 17:00 7,8 C 54 % 1003,3 hPa 0,0 l/m 9,7 km/h N-NW -0,9 C 5,4 C 5,4 km/h
29.03.2013 18:00 5,6 C 68 % 1003,2 hPa 0,0 l/m 21,4 km/h N 0,2 C -2,9 C 11,9 km/h
29.03.2013 19:00 3,8 C 78 % 1003,7 hPa 0,0 l/m 10,4 km/h N-NW 0,3 C 0,5 C 5,8 km/h
29.03.2013 20:00 3,2 C 81 % 1003,8 hPa 0,0 l/m 5,2 km/h N-NW 0,3 C 3,2 C 2,9 km/h
29.03.2013 21:00 2,9 C 82 % 1003,8 hPa 0,0 l/m 0,0 km/h N-NW 0,1 C 2,9 C 0,0 km/h
29.03.2013 22:00 2,9 C 83 % 1003,4 hPa 0,0 l/m 0,0 km/h O-NO 0,3 C 2,9 C 0,0 km/h
29.03.2013 23:00 2,9 C 84 % 1003,0 hPa 0,5 l/m 0,0 km/h NO 0,5 C 2,9 C 0,0 km/h
30.03.2013 00:00 2,6 C 84 % 1002,6 hPa 0,0 l/m 0,0 km/h NO 0,2 C 2,6 C 0,0 km/h
30.03.2013 01:00 2,4 C 85 % 1001,9 hPa 0,0 l/m 0,0 km/h O-NO 0,1 C 2,4 C 0,0 km/h
30.03.2013 02:00 2,2 C 85 % 1001,6 hPa 0,5 l/m 0,0 km/h O-NO -0,1 C 2,2 C 0,0 km/h
30.03.2013 03:00 1,9 C 85 % 1001,1 hPa 0,0 l/m 0,0 km/h O-NO -0,3 C 1,9 C 0,0 km/h
30.03.2013 04:00 1,9 C 85 % 1000,6 hPa 0,0 l/m 0,0 km/h O-NO -0,3 C 1,9 C 0,0 km/h
30.03.2013 05:00 1,9 C 85 % 1000,5 hPa 0,5 l/m 0,0 km/h O-NO -0,3 C 1,9 C 0,0 km/h
30.03.2013 06:00 1,9 C 85 % 1000,4 hPa 0,0 l/m 0,0 km/h NO -0,3 C 1,9 C 0,0 km/h
30.03.2013 07:00 2,1 C 84 % 1000,5 hPa 0,0 l/m 0,0 km/h N-NO -0,3 C 2,1 C 0,0 km/h
30.03.2013 08:00 1,4 C 84 % 1000,4 hPa 0,0 l/m 1,3 km/h N -1,0 C 1,4 C 0,7 km/h
30.03.2013 09:00 0,9 C 85 % 1000,4 hPa 0,0 l/m 0,0 km/h N -1,3 C 0,9 C 0,0 km/h
30.03.2013 10:00 2,1 C 84 % 1000,6 hPa 0,0 l/m 0,0 km/h NO -0,3 C 2,1 C 0,0 km/h
30.03.2013 11:00 2,5 C 85 % 1000,6 hPa 0,0 l/m 0,0 km/h N-NW 0,2 C 2,5 C 0,0 km/h
30.03.2013 12:00 2,9 C 85 % 1000,9 hPa 0,0 l/m 1,9 km/h N-NO 0,6 C 2,9 C 1,1 km/h
30.03.2013 13:00 3,3 C 85 % 1001,0 hPa 0,0 l/m 0,0 km/h W-SW 1,0 C 3,3 C 0,0 km/h
30.03.2013 14:00 4,1 C 84 % 1001,1 hPa 0,0 l/m 0,0 km/h W-NW 1,6 C 4,1 C 0,0 km/h
30.03.2013 15:00 4,7 C 84 % 1000,8 hPa 0,0 l/m 0,0 km/h W-NW 2,2 C 4,7 C 0,0 km/h
30.03.2013 16:00 4,3 C 83 % 1001,2 hPa 0,0 l/m 0,0 km/h SW 1,7 C 4,3 C 0,0 km/h
30.03.2013 17:00 3,9 C 85 % 1001,4 hPa 0,0 l/m 0,0 km/h W-SW 1,6 C 3,9 C 0,0 km/h
30.03.2013 18:00 3,6 C 85 % 1002,0 hPa 0,0 l/m 0,0 km/h SW 1,3 C 3,6 C 0,0 km/h
30.03.2013 19:00 3,4 C 85 % 1002,3 hPa 0,0 l/m 0,0 km/h S-SW 1,1 C 3,4 C 0,0 km/h
30.03.2013 20:00 3,2 C 85 % 1002,9 hPa 0,0 l/m 0,0 km/h S-SW 0,9 C 3,2 C 0,0 km/h
30.03.2013 21:00 3,2 C 85 % 1002,9 hPa 0,0 l/m 0,0 km/h O-SO 0,9 C 3,2 C 0,0 km/h
30.03.2013 22:00 2,9 C 85 % 1003,1 hPa 0,0 l/m 0,0 km/h O-SO 0,6 C 2,9 C 0,0 km/h
30.03.2013 23:00 2,8 C 85 % 1003,1 hPa 0,0 l/m 0,0 km/h O 0,5 C 2,8 C 0,0 km/h
31.03.2013 00:00 2,8 C 85 % 1003,3 hPa 0,5 l/m 0,0 km/h N-NO 0,5 C 2,8 C 0,0 km/h
31.03.2013 01:00 2,0 C 84 % 1003,5 hPa 1,0 l/m 0,0 km/h N-NO -0,4 C 2,0 C 0,0 km/h
31.03.2013 02:00 1,2 C 84 % 1003,8 hPa 0,5 l/m 0,0 km/h N-NO -1,2 C 1,2 C 0,0 km/h
31.03.2013 03:00 1,1 C 83 % 1003,7 hPa 0,0 l/m 0,0 km/h O-SO -1,5 C 1,1 C 0,0 km/h
31.03.2013 04:00 0,9 C 82 % 1003,9 hPa 0,5 l/m 0,0 km/h N-NO -1,8 C 0,9 C 0,0 km/h
31.03.2013 05:00 0,9 C 82 % 1004,3 hPa 0,0 l/m 0,0 km/h N-NO -1,8 C 0,9 C 0,0 km/h
31.03.2013 06:00 0,7 C 84 % 1004,3 hPa 0,0 l/m 0,0 km/h N -1,7 C 0,7 C 0,0 km/h
31.03.2013 07:00 0,4 C 85 % 1004,9 hPa 0,0 l/m 3,9 km/h NO -1,8 C 0,4 C 2,2 km/h
31.03.2013 08:00 0,6 C 86 % 1005,4 hPa 0,0 l/m 0,0 km/h N-NO -1,5 C 0,6 C 0,0 km/h
31.03.2013 09:00 1,4 C 86 % 1006,0 hPa 0,0 l/m 0,0 km/h NO -0,7 C 1,4 C 0,0 km/h
31.03.2013 10:00 2,7 C 84 % 1006,2 hPa 0,0 l/m 2,6 km/h N 0,3 C 2,7 C 1,4 km/h
31.03.2013 11:00 2,7 C 83 % 1006,6 hPa 0,0 l/m 18,8 km/h O-SO 0,1 C -5,6 C 10,4 km/h
31.03.2013 12:00 3,8 C 80 % 1006,8 hPa 0,0 l/m 1,3 km/h SO 0,7 C 3,8 C 0,7 km/h
31.03.2013 13:00 5,2 C 78 % 1007,0 hPa 0,0 l/m 0,0 km/h SO 1,7 C 5,2 C 0,0 km/h
31.03.2013 14:00 7,9 C 68 % 1007,1 hPa 0,0 l/m 10,4 km/h S-SW 2,4 C 5,0 C 5,8 km/h
31.03.2013 15:00 7,0 C 66 % 1007,0 hPa 0,0 l/m 21,4 km/h O-SO 1,1 C -1,1 C 11,9 km/h
31.03.2013 16:00 6,1 C 65 % 1006,8 hPa 0,0 l/m 0,0 km/h S-SO 0,0 C 6,1 C 0,0 km/h
31.03.2013 17:00 5,9 C 66 % 1006,8 hPa 0,0 l/m 0,0 km/h SO 0,0 C 5,9 C 0,0 km/h
31.03.2013 18:00 5,9 C 66 % 1007,0 hPa 0,0 l/m 1,9 km/h SO 0,0 C 5,9 C 1,1 km/h
31.03.2013 19:00 2,3 C 74 % 1007,2 hPa 0,0 l/m 0,0 km/h SO -1,8 C 2,3 C 0,0 km/h
31.03.2013 20:00 0,8 C 79 % 1007,4 hPa 0,0 l/m 0,0 km/h O-SO -2,4 C 0,8 C 0,0 km/h
31.03.2013 21:00 0,4 C 82 % 1007,5 hPa 0,0 l/m 0,0 km/h S -2,3 C 0,4 C 0,0 km/h
31.03.2013 22:00 -0,1 C 84 % 1007,4 hPa 0,0 l/m 0,0 km/h S-SW -2,5 C -0,1 C 0,0 km/h
31.03.2013 23:00 -0,9 C 85 % 1006,8 hPa 0,0 l/m 2,6 km/h S-SW -3,1 C -0,9 C 1,4 km/h
Min-Datum _ 28.03.13 29.03.13 30.03.13 - 25.03.13 - 28.03.13 31.03.13 25.03.13
_ Min-Zeit 06:19 15:19 06:19 - 00:19 - 06:19 11:19 00:19
Minimum _ -3,4 C 46 % 1000,4 hPa - 0,0 km/h - -5,4 C -5,6 C 0,0 km/h
Max-Datum _ 29.03.13 28.03.13 29.03.13 25.03.13 29.03.13 - 29.03.13 29.03.13 29.03.13
_ Max-Zeit 11:19 04:19 06:19 09:19 18:19 - 09:19 12:19 18:19
Maximum _ 11,6 C 86 % 1007,5 hPa 1,0 l/m 21,4 km/h
N
- 5,0 C 11,6 C 11,9 km/h
N
Durchschnitt _ 2,3 C 77 % 1004,5 hPa #11,9 l/m 1,1 km/h O-SO -1,4 C 2,0 C 0,6 km/h
www.sexauwetter.de